sensor_id;sensor_type;location;lat;lon;timestamp;pressure;altitude;pressure_sealevel;temperature;humidity
44044;BME280;29709;52.396;16.796;2023-05-02T00:00:35;101347.45;;;12.28;52.72
44044;BME280;29709;52.396;16.796;2023-05-02T00:03:48;101339.90;;;12.30;52.51
44044;BME280;29709;52.396;16.796;2023-05-02T00:07:02;101346.41;;;12.29;52.60
44044;BME280;29709;52.396;16.796;2023-05-02T00:10:15;101346.59;;;12.28;52.90
44044;BME280;29709;52.396;16.796;2023-05-02T00:13:28;101343.83;;;12.28;52.85
44044;BME280;29709;52.396;16.796;2023-05-02T00:16:42;101338.01;;;12.31;52.80
44044;BME280;29709;52.396;16.796;2023-05-02T00:19:55;101345.93;;;12.34;53.13
44044;BME280;29709;52.396;16.796;2023-05-02T00:23:08;101335.77;;;12.34;53.27
44044;BME280;29709;52.396;16.796;2023-05-02T00:26:24;101336.46;;;12.36;54.43
44044;BME280;29709;52.396;16.796;2023-05-02T00:29:40;101338.73;;;12.41;54.45
44044;BME280;29709;52.396;16.796;2023-05-02T00:32:53;101334.77;;;12.43;54.64
44044;BME280;29709;52.396;16.796;2023-05-02T00:36:13;101333.38;;;12.48;53.85
44044;BME280;29709;52.396;16.796;2023-05-02T00:39:26;101336.84;;;12.50;54.44
44044;BME280;29709;52.396;16.796;2023-05-02T00:42:39;101335.31;;;12.55;53.06
44044;BME280;29709;52.396;16.796;2023-05-02T00:45:53;101336.52;;;12.61;54.13
44044;BME280;29709;52.396;16.796;2023-05-02T00:49:07;101329.48;;;12.66;53.48
44044;BME280;29709;52.396;16.796;2023-05-02T00:52:20;101334.82;;;12.68;53.54
44044;BME280;29709;52.396;16.796;2023-05-02T00:55:34;101329.99;;;12.70;55.40
44044;BME280;29709;52.396;16.796;2023-05-02T00:58:47;101332.09;;;12.76;53.79
44044;BME280;29709;52.396;16.796;2023-05-02T01:02:11;101334.50;;;12.79;55.74
44044;BME280;29709;52.396;16.796;2023-05-02T01:05:35;101337.95;;;12.81;55.10
44044;BME280;29709;52.396;16.796;2023-05-02T01:08:54;101334.70;;;12.86;53.92
44044;BME280;29709;52.396;16.796;2023-05-02T01:12:16;101329.86;;;12.88;54.43
44044;BME280;29709;52.396;16.796;2023-05-02T01:15:33;101333.13;;;12.91;55.11
44044;BME280;29709;52.396;16.796;2023-05-02T01:18:49;101336.76;;;12.92;55.61
44044;BME280;29709;52.396;16.796;2023-05-02T01:22:06;101341.27;;;12.93;54.75
44044;BME280;29709;52.396;16.796;2023-05-02T01:28:58;101340.73;;;12.97;55.29
44044;BME280;29709;52.396;16.796;2023-05-02T01:32:14;101337.98;;;12.97;56.13
44044;BME280;29709;52.396;16.796;2023-05-02T01:35:29;101338.84;;;12.98;54.84
44044;BME280;29709;52.396;16.796;2023-05-02T01:38:43;101336.77;;;13.00;56.72
44044;BME280;29709;52.396;16.796;2023-05-02T01:41:58;101339.35;;;13.01;55.91
44044;BME280;29709;52.396;16.796;2023-05-02T01:45:15;101337.63;;;13.00;56.32
44044;BME280;29709;52.396;16.796;2023-05-02T01:48:29;101337.63;;;13.00;57.85
44044;BME280;29709;52.396;16.796;2023-05-02T01:51:46;101332.47;;;13.06;56.65
44044;BME280;29709;52.396;16.796;2023-05-02T01:55:00;101329.37;;;13.09;55.73
44044;BME280;29709;52.396;16.796;2023-05-02T01:58:16;101324.53;;;13.11;58.00
44044;BME280;29709;52.396;16.796;2023-05-02T02:01:31;101330.95;;;13.19;58.90
44044;BME280;29709;52.396;16.796;2023-05-02T02:04:46;101324.40;;;13.28;58.14
44044;BME280;29709;52.396;16.796;2023-05-02T02:08:00;101327.66;;;13.32;59.44
44044;BME280;29709;52.396;16.796;2023-05-02T02:11:16;101327.66;;;13.32;58.38
44044;BME280;29709;52.396;16.796;2023-05-02T02:14:37;101335.26;;;13.38;58.96
44044;BME280;29709;52.396;16.796;2023-05-02T02:17:58;101336.62;;;13.42;56.75
44044;BME280;29709;52.396;16.796;2023-05-02T02:21:16;101343.91;;;13.35;59.21
44044;BME280;29709;52.396;16.796;2023-05-02T02:24:30;101336.98;;;13.31;59.66
44044;BME280;29709;52.396;16.796;2023-05-02T02:27:44;101343.54;;;13.30;59.57
44044;BME280;29709;52.396;16.796;2023-05-02T02:30:59;101346.15;;;13.23;58.00
44044;BME280;29709;52.396;16.796;2023-05-02T02:34:13;101355.98;;;13.26;57.81
44044;BME280;29709;52.396;16.796;2023-05-02T02:37:32;101361.50;;;13.26;60.00
44044;BME280;29709;52.396;16.796;2023-05-02T02:41:00;101355.80;;;13.27;58.35
44044;BME280;29709;52.396;16.796;2023-05-02T02:44:20;101363.05;;;13.28;62.01
44044;BME280;29709;52.396;16.796;2023-05-02T02:48:00;101368.90;;;13.34;59.43
44044;BME280;29709;52.396;16.796;2023-05-02T02:54:32;101386.33;;;13.42;59.26
44044;BME280;29709;52.396;16.796;2023-05-02T02:57:57;101386.33;;;13.42;62.21
44044;BME280;29709;52.396;16.796;2023-05-02T03:01:17;101388.22;;;13.42;59.86
44044;BME280;29709;52.396;16.796;2023-05-02T03:04:33;101388.91;;;13.44;59.80
44044;BME280;29709;52.396;16.796;2023-05-02T03:07:48;101386.33;;;13.42;62.43
44044;BME280;29709;52.396;16.796;2023-05-02T03:11:01;101385.82;;;13.47;62.90
44044;BME280;29709;52.396;16.796;2023-05-02T03:14:14;101392.72;;;13.51;61.08
44044;BME280;29709;52.396;16.796;2023-05-02T03:17:27;101393.40;;;13.53;63.51
44044;BME280;29709;52.396;16.796;2023-05-02T03:20:41;101391.35;;;13.55;63.24
44044;BME280;29709;52.396;16.796;2023-05-02T03:23:54;101397.38;;;13.58;60.56
44044;BME280;29709;52.396;16.796;2023-05-02T03:27:08;101399.11;;;13.51;60.61
44044;BME280;29709;52.396;16.796;2023-05-02T03:30:21;101410.51;;;13.48;62.49
44044;BME280;29709;52.396;16.796;2023-05-02T03:33:34;101420.19;;;13.44;62.73
44044;BME280;29709;52.396;16.796;2023-05-02T03:36:47;101419.14;;;13.45;61.20
44044;BME280;29709;52.396;16.796;2023-05-02T03:40:01;101418.41;;;13.43;60.91
44044;BME280;29709;52.396;16.796;2023-05-02T03:43:14;101422.95;;;13.44;60.99
44044;BME280;29709;52.396;16.796;2023-05-02T03:46:27;101434.49;;;13.48;61.38
44044;BME280;29709;52.396;16.796;2023-05-02T03:49:41;101449.34;;;13.47;61.56
44044;BME280;29709;52.396;16.796;2023-05-02T03:52:54;101451.41;;;13.45;62.06
44044;BME280;29709;52.396;16.796;2023-05-02T03:56:07;101460.02;;;13.42;62.29
44044;BME280;29709;52.396;16.796;2023-05-02T03:59:20;101468.14;;;13.35;63.00
44044;BME280;29709;52.396;16.796;2023-05-02T04:02:33;101479.84;;;13.29;63.82
44044;BME280;29709;52.396;16.796;2023-05-02T04:05:46;101479.52;;;13.24;64.48
44044;BME280;29709;52.396;16.796;2023-05-02T04:08:59;101480.00;;;13.19;65.45
44044;BME280;29709;52.396;16.796;2023-05-02T04:12:14;101489.63;;;13.15;66.68
44044;BME280;29709;52.396;16.796;2023-05-02T04:15:28;101480.48;;;13.15;66.34
44044;BME280;29709;52.396;16.796;2023-05-02T04:18:41;101483.93;;;13.17;67.93
44044;BME280;29709;52.396;16.796;2023-05-02T04:21:55;101489.83;;;13.22;69.62
44044;BME280;29709;52.396;16.796;2023-05-02T04:25:08;101489.86;;;13.30;66.46
44044;BME280;29709;52.396;16.796;2023-05-02T04:28:21;101487.09;;;13.30;69.14
44044;BME280;29709;52.396;16.796;2023-05-02T04:31:35;101490.74;;;13.39;67.15
44044;BME280;29709;52.396;16.796;2023-05-02T04:34:49;101495.73;;;13.43;67.04
44044;BME280;29709;52.396;16.796;2023-05-02T04:38:03;101494.55;;;13.46;65.66
44044;BME280;29709;52.396;16.796;2023-05-02T04:41:16;101491.98;;;13.44;66.63
44044;BME280;29709;52.396;16.796;2023-05-02T04:44:30;101499.22;;;13.45;68.81
44044;BME280;29709;52.396;16.796;2023-05-02T04:47:43;101497.84;;;13.49;66.32
44044;BME280;29709;52.396;16.796;2023-05-02T04:50:56;101496.11;;;13.48;67.75
44044;BME280;29709;52.396;16.796;2023-05-02T04:54:09;101500.41;;;13.51;69.51
44044;BME280;29709;52.396;16.796;2023-05-02T04:57:23;101498.89;;;13.56;66.59
44044;BME280;29709;52.396;16.796;2023-05-02T05:00:36;101496.45;;;13.53;67.35
44044;BME280;29709;52.396;16.796;2023-05-02T05:03:50;101497.48;;;13.52;69.41
44044;BME280;29709;52.396;16.796;2023-05-02T05:07:03;101488.52;;;13.58;71.11
44044;BME280;29709;52.396;16.796;2023-05-02T05:10:16;101499.22;;;13.62;69.82
44044;BME280;29709;52.396;16.796;2023-05-02T05:13:29;101496.82;;;13.67;70.40
44044;BME280;29709;52.396;16.796;2023-05-02T05:16:44;101493.36;;;13.73;67.86
44044;BME280;29709;52.396;16.796;2023-05-02T05:19:57;101490.45;;;13.66;72.07
44044;BME280;29709;52.396;16.796;2023-05-02T05:23:10;101502.84;;;13.62;70.05
44044;BME280;29709;52.396;16.796;2023-05-02T05:26:23;101498.01;;;13.64;71.45
44044;BME280;29709;52.396;16.796;2023-05-02T05:29:38;101505.63;;;13.70;67.81
44044;BME280;29709;52.396;16.796;2023-05-02T05:32:51;101498.88;;;13.73;71.90
44044;BME280;29709;52.396;16.796;2023-05-02T05:36:09;101499.43;;;13.76;72.05
44044;BME280;29709;52.396;16.796;2023-05-02T05:39:23;101502.16;;;13.84;68.88
44044;BME280;29709;52.396;16.796;2023-05-02T05:42:37;101507.19;;;13.89;70.25
44044;BME280;29709;52.396;16.796;2023-05-02T05:45:54;101510.64;;;13.91;70.84
44044;BME280;29709;52.396;16.796;2023-05-02T05:49:08;101522.56;;;14.00;69.28
44044;BME280;29709;52.396;16.796;2023-05-02T05:52:21;101527.55;;;14.04;68.22
44044;BME280;29709;52.396;16.796;2023-05-02T05:55:34;101538.61;;;14.12;69.31
44044;BME280;29709;52.396;16.796;2023-05-02T05:58:50;101548.45;;;14.23;67.63
44044;BME280;29709;52.396;16.796;2023-05-02T06:02:03;101551.58;;;14.28;69.99
44044;BME280;29709;52.396;16.796;2023-05-02T06:05:17;101548.45;;;14.39;69.54
44044;BME280;29709;52.396;16.796;2023-05-02T06:08:30;101561.41;;;14.55;68.20
44044;BME280;29709;52.396;16.796;2023-05-02T06:11:43;101561.57;;;14.62;68.88
44044;BME280;29709;52.396;16.796;2023-05-02T06:14:57;101562.92;;;14.74;66.86
44044;BME280;29709;52.396;16.796;2023-05-02T06:18:10;101566.00;;;14.79;67.33
44044;BME280;29709;52.396;16.796;2023-05-02T06:21:23;101561.47;;;14.94;66.59
44044;BME280;29709;52.396;16.796;2023-05-02T06:24:37;101562.99;;;15.05;66.18
44044;BME280;29709;52.396;16.796;2023-05-02T06:27:51;101572.10;;;15.22;65.83
44044;BME280;29709;52.396;16.796;2023-05-02T06:31:04;101575.82;;;15.37;66.28
44044;BME280;29709;52.396;16.796;2023-05-02T06:34:18;101577.11;;;15.57;64.97
44044;BME280;29709;52.396;16.796;2023-05-02T06:37:33;101584.36;;;15.67;64.42
44044;BME280;29709;52.396;16.796;2023-05-02T06:40:47;101593.82;;;15.72;64.38
44044;BME280;29709;52.396;16.796;2023-05-02T06:44:01;101590.64;;;15.83;64.46
44044;BME280;29709;52.396;16.796;2023-05-02T06:47:14;101602.72;;;15.91;64.05
44044;BME280;29709;52.396;16.796;2023-05-02T06:50:28;101607.36;;;15.98;63.52
44044;BME280;29709;52.396;16.796;2023-05-02T06:53:41;101619.60;;;16.04;63.85
44044;BME280;29709;52.396;16.796;2023-05-02T06:56:54;101611.62;;;16.09;63.95
44044;BME280;29709;52.396;16.796;2023-05-02T07:00:08;101622.08;;;16.22;63.99
44044;BME280;29709;52.396;16.796;2023-05-02T07:03:22;101619.38;;;16.36;63.86
44044;BME280;29709;52.396;16.796;2023-05-02T07:06:35;101629.20;;;16.62;63.81
44044;BME280;29709;52.396;16.796;2023-05-02T07:09:48;101636.17;;;16.81;63.02
44044;BME280;29709;52.396;16.796;2023-05-02T07:13:01;101631.75;;;16.86;62.09
44044;BME280;29709;52.396;16.796;2023-05-02T07:16:15;101645.08;;;16.91;61.58
44044;BME280;29709;52.396;16.796;2023-05-02T07:19:28;101649.67;;;16.98;60.29
44044;BME280;29709;52.396;16.796;2023-05-02T07:22:41;101655.80;;;17.09;59.88
44044;BME280;29709;52.396;16.796;2023-05-02T07:25:55;101658.50;;;17.17;60.76
44044;BME280;29709;52.396;16.796;2023-05-02T07:29:08;101669.61;;;17.17;58.70
44044;BME280;29709;52.396;16.796;2023-05-02T07:32:22;101680.72;;;17.02;58.82
44044;BME280;29709;52.396;16.796;2023-05-02T07:35:38;101676.49;;;17.06;59.75
44044;BME280;29709;52.396;16.796;2023-05-02T07:38:51;101681.89;;;17.22;59.96
44044;BME280;29709;52.396;16.796;2023-05-02T07:42:04;101686.59;;;17.37;57.98
44044;BME280;29709;52.396;16.796;2023-05-02T07:45:18;101684.27;;;17.40;57.37
44044;BME280;29709;52.396;16.796;2023-05-02T07:48:31;101685.55;;;17.52;57.45
44044;BME280;29709;52.396;16.796;2023-05-02T07:51:46;101693.49;;;17.70;55.41
44044;BME280;29709;52.396;16.796;2023-05-02T07:54:59;101694.05;;;17.80;56.33
44044;BME280;29709;52.396;16.796;2023-05-02T07:58:13;101700.38;;;17.89;54.61
44044;BME280;29709;52.396;16.796;2023-05-02T08:01:26;101692.67;;;18.06;54.47
44044;BME280;29709;52.396;16.796;2023-05-02T08:04:41;101696.66;;;18.18;53.93
44044;BME280;29709;52.396;16.796;2023-05-02T08:07:55;101701.05;;;18.27;53.30
44044;BME280;29709;52.396;16.796;2023-05-02T08:11:08;101706.30;;;18.37;53.96
44044;BME280;29709;52.396;16.796;2023-05-02T08:14:21;101704.05;;;18.47;51.97
44044;BME280;29709;52.396;16.796;2023-05-02T08:17:35;101712.08;;;18.57;52.40
44044;BME280;29709;52.396;16.796;2023-05-02T08:20:48;101725.87;;;18.65;51.71
44044;BME280;29709;52.396;16.796;2023-05-02T08:26:44;101725.48;;;18.89;52.29
44044;BME280;29709;52.396;16.796;2023-05-02T08:29:58;101728.64;;;19.08;52.05
44044;BME280;29709;52.396;16.796;2023-05-02T08:33:11;101725.33;;;19.25;51.63
44044;BME280;29709;52.396;16.796;2023-05-02T08:36:24;101734.50;;;19.47;52.17
44044;BME280;29709;52.396;16.796;2023-05-02T08:39:40;101729.94;;;19.68;50.55
44044;BME280;29709;52.396;16.796;2023-05-02T08:42:54;101743.06;;;19.74;48.77
44044;BME280;29709;52.396;16.796;2023-05-02T08:46:09;101731.28;;;19.78;48.41
44044;BME280;29709;52.396;16.796;2023-05-02T08:49:24;101727.71;;;19.91;48.68
44044;BME280;29709;52.396;16.796;2023-05-02T08:52:39;101737.60;;;20.00;47.33
44044;BME280;29709;52.396;16.796;2023-05-02T08:55:53;101732.97;;;20.14;46.91
44044;BME280;29709;52.396;16.796;2023-05-02T08:59:06;101735.79;;;20.27;45.87
44044;BME280;29709;52.396;16.796;2023-05-02T09:05:46;101745.91;;;20.41;45.72
44044;BME280;29709;52.396;16.796;2023-05-02T09:09:04;101751.82;;;20.53;45.35
44044;BME280;29709;52.396;16.796;2023-05-02T09:12:25;101752.66;;;20.60;43.94
44044;BME280;29709;52.396;16.796;2023-05-02T09:15:39;101747.75;;;20.69;43.48
44044;BME280;29709;52.396;16.796;2023-05-02T09:18:54;101753.81;;;20.86;43.01
44044;BME280;29709;52.396;16.796;2023-05-02T09:22:08;101752.07;;;21.04;42.71
44044;BME280;29709;52.396;16.796;2023-05-02T09:25:21;101753.60;;;21.07;39.87
44044;BME280;29709;52.396;16.796;2023-05-02T09:28:41;101759.84;;;20.96;40.55
44044;BME280;29709;52.396;16.796;2023-05-02T09:31:55;101769.50;;;21.13;40.85
44044;BME280;29709;52.396;16.796;2023-05-02T09:35:09;101768.84;;;21.24;40.34
44044;BME280;29709;52.396;16.796;2023-05-02T09:38:23;101764.58;;;21.35;40.51
44044;BME280;29709;52.396;16.796;2023-05-02T09:41:41;101780.07;;;21.57;40.93
44044;BME280;29709;52.396;16.796;2023-05-02T09:44:55;101771.24;;;21.60;40.57
44044;BME280;29709;52.396;16.796;2023-05-02T09:48:09;101779.66;;;21.47;39.88
44044;BME280;29709;52.396;16.796;2023-05-02T09:51:24;101789.74;;;21.35;39.87
44044;BME280;29709;52.396;16.796;2023-05-02T09:54:37;101799.65;;;21.31;40.26
44044;BME280;29709;52.396;16.796;2023-05-02T09:57:50;101800.29;;;21.33;39.82
44044;BME280;29709;52.396;16.796;2023-05-02T10:01:04;101789.51;;;21.10;38.24
44044;BME280;29709;52.396;16.796;2023-05-02T10:04:17;101805.19;;;20.98;37.80
44044;BME280;29709;52.396;16.796;2023-05-02T10:07:33;101810.78;;;20.98;39.09
44044;BME280;29709;52.396;16.796;2023-05-02T10:10:52;101811.42;;;21.00;37.83
44044;BME280;29709;52.396;16.796;2023-05-02T10:14:09;101800.48;;;21.18;39.08
44044;BME280;29709;52.396;16.796;2023-05-02T10:17:27;101814.72;;;21.37;38.31
44044;BME280;29709;52.396;16.796;2023-05-02T10:20:47;101816.85;;;21.61;38.73
44044;BME280;29709;52.396;16.796;2023-05-02T10:24:06;101823.08;;;21.56;38.38
44044;BME280;29709;52.396;16.796;2023-05-02T10:27:19;101824.78;;;21.77;38.37
44044;BME280;29709;52.396;16.796;2023-05-02T10:30:34;101832.76;;;21.67;37.33
44044;BME280;29709;52.396;16.796;2023-05-02T10:33:50;101832.34;;;21.57;38.39
44044;BME280;29709;52.396;16.796;2023-05-02T10:37:06;101837.91;;;21.77;38.76
44044;BME280;29709;52.396;16.796;2023-05-02T10:40:20;101835.37;;;21.69;38.09
44044;BME280;29709;52.396;16.796;2023-05-02T10:43:34;101832.53;;;21.75;38.60
44044;BME280;29709;52.396;16.796;2023-05-02T10:46:52;101840.94;;;21.88;38.86
44044;BME280;29709;52.396;16.796;2023-05-02T10:50:06;101840.27;;;21.93;38.53
44044;BME280;29709;52.396;16.796;2023-05-02T10:53:24;101841.81;;;21.69;38.62
44044;BME280;29709;52.396;16.796;2023-05-02T11:07:16;101852.15;;;21.69;39.02
44044;BME280;29709;52.396;16.796;2023-05-02T11:10:23;101852.11;;;21.95;37.76
44044;BME280;29709;52.396;16.796;2023-05-02T11:13:48;101861.99;;;22.04;36.91
44044;BME280;29709;52.396;16.796;2023-05-02T11:17:07;101861.99;;;22.04;35.42
44044;BME280;29709;52.396;16.796;2023-05-02T11:20:20;101863.29;;;22.15;36.31
44044;BME280;29709;52.396;16.796;2023-05-02T11:23:33;101863.97;;;22.10;35.47
44044;BME280;29709;52.396;16.796;2023-05-02T11:26:48;101864.16;;;22.02;36.32
44044;BME280;29709;52.396;16.796;2023-05-02T11:30:04;101879.45;;;21.67;36.37
44044;BME280;29709;52.396;16.796;2023-05-02T11:33:21;101879.23;;;21.35;37.80
44044;BME280;29709;52.396;16.796;2023-05-02T11:36:34;101878.12;;;21.16;38.39
44044;BME280;29709;52.396;16.796;2023-05-02T11:39:47;101889.71;;;21.07;39.01
44044;BME280;29709;52.396;16.796;2023-05-02T11:46:25;101886.28;;;21.24;39.06
44044;BME280;29709;52.396;16.796;2023-05-02T11:49:38;101891.02;;;21.24;39.16
44044;BME280;29709;52.396;16.796;2023-05-02T11:52:52;101897.30;;;21.32;38.78
44044;BME280;29709;52.396;16.796;2023-05-02T11:56:06;101900.77;;;21.41;39.14
44044;BME280;29709;52.396;16.796;2023-05-02T11:59:21;101904.64;;;21.40;38.42
44044;BME280;29709;52.396;16.796;2023-05-02T12:02:41;101897.98;;;21.61;38.79
44044;BME280;29709;52.396;16.796;2023-05-02T12:05:56;101907.66;;;21.52;39.32
44044;BME280;29709;52.396;16.796;2023-05-02T12:09:13;101911.09;;;21.41;38.99
44044;BME280;29709;52.396;16.796;2023-05-02T12:12:35;101908.72;;;21.44;39.45
44044;BME280;29709;52.396;16.796;2023-05-02T12:15:49;101922.53;;;21.59;40.47
44044;BME280;29709;52.396;16.796;2023-05-02T12:19:03;101918.43;;;21.75;39.08
44044;BME280;29709;52.396;16.796;2023-05-02T12:22:17;101927.04;;;21.47;39.89
44044;BME280;29709;52.396;16.796;2023-05-02T12:25:30;101940.24;;;21.12;40.33
44044;BME280;29709;52.396;16.796;2023-05-02T12:28:48;101942.31;;;20.90;41.10
44044;BME280;29709;52.396;16.796;2023-05-02T12:32:02;101948.34;;;20.87;42.48
44044;BME280;29709;52.396;16.796;2023-05-02T12:35:22;101952.42;;;20.91;43.07
44044;BME280;29709;52.396;16.796;2023-05-02T12:38:35;101952.10;;;20.66;43.17
44044;BME280;29709;52.396;16.796;2023-05-02T12:41:48;101958.38;;;20.74;43.43
44044;BME280;29709;52.396;16.796;2023-05-02T12:45:02;101962.42;;;20.72;43.63
44044;BME280;29709;52.396;16.796;2023-05-02T12:48:22;101958.39;;;20.81;43.96
44044;BME280;29709;52.396;16.796;2023-05-02T12:51:36;101967.62;;;20.82;43.85
44044;BME280;29709;52.396;16.796;2023-05-02T12:54:50;101969.30;;;20.69;44.57
44044;BME280;29709;52.396;16.796;2023-05-02T12:58:06;101967.30;;;20.57;44.72
44044;BME280;29709;52.396;16.796;2023-05-02T13:01:25;101984.00;;;20.50;45.33
44044;BME280;29709;52.396;16.796;2023-05-02T13:04:39;101983.56;;;20.46;44.98
44044;BME280;29709;52.396;16.796;2023-05-02T13:07:53;101990.02;;;20.47;45.58
44044;BME280;29709;52.396;16.796;2023-05-02T13:11:10;101999.16;;;20.41;45.64
44044;BME280;29709;52.396;16.796;2023-05-02T13:14:24;101992.69;;;20.34;45.41
44044;BME280;29709;52.396;16.796;2023-05-02T13:17:37;101997.49;;;20.18;45.66
44044;BME280;29709;52.396;16.796;2023-05-02T13:20:51;102007.83;;;19.97;45.67
44044;BME280;29709;52.396;16.796;2023-05-02T13:24:04;102005.99;;;19.82;45.75
44044;BME280;29709;52.396;16.796;2023-05-02T13:27:24;102005.05;;;19.75;45.73
44044;BME280;29709;52.396;16.796;2023-05-02T13:30:37;102015.36;;;19.75;46.47
44044;BME280;29709;52.396;16.796;2023-05-02T13:33:50;102020.23;;;19.51;46.72
44044;BME280;29709;52.396;16.796;2023-05-02T13:37:04;102021.50;;;19.49;46.76
44044;BME280;29709;52.396;16.796;2023-05-02T13:40:17;102023.68;;;19.53;47.24
44044;BME280;29709;52.396;16.796;2023-05-02T13:43:30;102026.96;;;19.57;46.84
44044;BME280;29709;52.396;16.796;2023-05-02T13:46:44;102028.92;;;19.42;46.59
44044;BME280;29709;52.396;16.796;2023-05-02T13:49:57;102034.65;;;19.19;46.75
44044;BME280;29709;52.396;16.796;2023-05-02T13:53:10;102026.96;;;19.06;45.91
44044;BME280;29709;52.396;16.796;2023-05-02T13:56:23;102030.34;;;19.01;46.11
44044;BME280;29709;52.396;16.796;2023-05-02T13:59:37;102028.82;;;18.99;46.93
44044;BME280;29709;52.396;16.796;2023-05-02T14:02:53;102047.81;;;18.95;47.13
44044;BME280;29709;52.396;16.796;2023-05-02T14:06:06;102037.09;;;18.78;46.61
44044;BME280;29709;52.396;16.796;2023-05-02T14:09:19;102045.45;;;18.78;47.15
44044;BME280;29709;52.396;16.796;2023-05-02T14:12:33;102051.21;;;18.76;46.62
44044;BME280;29709;52.396;16.796;2023-05-02T14:15:46;102053.42;;;18.66;47.07
44044;BME280;29709;52.396;16.796;2023-05-02T14:18:59;102062.65;;;18.43;47.22
44044;BME280;29709;52.396;16.796;2023-05-02T14:22:12;102054.48;;;18.42;47.60
44044;BME280;29709;52.396;16.796;2023-05-02T14:25:25;102053.15;;;18.38;47.02
44044;BME280;29709;52.396;16.796;2023-05-02T14:28:38;102059.11;;;18.35;46.88
44044;BME280;29709;52.396;16.796;2023-05-02T14:31:52;102063.02;;;18.26;47.80
44044;BME280;29709;52.396;16.796;2023-05-02T14:35:06;102068.65;;;18.17;47.26
44044;BME280;29709;52.396;16.796;2023-05-02T14:38:19;102060.37;;;18.09;46.83
44044;BME280;29709;52.396;16.796;2023-05-02T14:41:33;102072.55;;;18.08;47.45
44044;BME280;29709;52.396;16.796;2023-05-02T14:44:46;102070.25;;;18.12;47.93
44044;BME280;29709;52.396;16.796;2023-05-02T14:48:00;102075.95;;;18.18;47.60
44044;BME280;29709;52.396;16.796;2023-05-02T14:51:13;102072.59;;;18.23;47.67
44044;BME280;29709;52.396;16.796;2023-05-02T14:54:27;102082.98;;;18.29;46.23
44044;BME280;29709;52.396;16.796;2023-05-02T14:57:42;102082.85;;;18.23;46.66
44044;BME280;29709;52.396;16.796;2023-05-02T15:00:55;102081.99;;;18.22;47.41
44044;BME280;29709;52.396;16.796;2023-05-02T15:04:08;102090.94;;;18.32;47.64
44044;BME280;29709;52.396;16.796;2023-05-02T15:07:22;102092.85;;;18.32;46.56
44044;BME280;29709;52.396;16.796;2023-05-02T15:10:36;102093.98;;;18.23;47.21
44044;BME280;29709;52.396;16.796;2023-05-02T15:13:49;102103.90;;;18.25;48.20
44044;BME280;29709;52.396;16.796;2023-05-02T15:17:02;102115.47;;;18.14;48.23
44044;BME280;29709;52.396;16.796;2023-05-02T15:20:16;102111.12;;;18.11;47.50
44044;BME280;29709;52.396;16.796;2023-05-02T15:23:29;102113.42;;;18.08;48.11
44044;BME280;29709;52.396;16.796;2023-05-02T15:26:43;102119.47;;;18.11;48.54
44044;BME280;29709;52.396;16.796;2023-05-02T15:29:57;102126.09;;;18.10;47.72
44044;BME280;29709;52.396;16.796;2023-05-02T15:33:10;102125.84;;;17.97;48.24
44044;BME280;29709;52.396;16.796;2023-05-02T15:36:26;102123.30;;;17.87;48.04
44044;BME280;29709;52.396;16.796;2023-05-02T15:39:42;102130.97;;;17.85;49.20
44044;BME280;29709;52.396;16.796;2023-05-02T15:42:56;102133.12;;;17.75;49.02
44044;BME280;29709;52.396;16.796;2023-05-02T15:46:10;102133.50;;;17.72;49.89
44044;BME280;29709;52.396;16.796;2023-05-02T15:49:23;102145.99;;;17.68;49.61
44044;BME280;29709;52.396;16.796;2023-05-02T15:52:45;102139.93;;;17.65;49.05
44044;BME280;29709;52.396;16.796;2023-05-02T15:55:59;102140.00;;;17.48;49.88
44044;BME280;29709;52.396;16.796;2023-05-02T15:59:12;102140.77;;;17.34;49.16
44044;BME280;29709;52.396;16.796;2023-05-02T16:02:28;102143.77;;;17.24;49.28
44044;BME280;29709;52.396;16.796;2023-05-02T16:05:41;102152.47;;;17.21;50.56
44044;BME280;29709;52.396;16.796;2023-05-02T16:08:55;102152.48;;;17.13;49.62
44044;BME280;29709;52.396;16.796;2023-05-02T16:12:08;102157.88;;;17.07;50.54
44044;BME280;29709;52.396;16.796;2023-05-02T16:15:21;102152.19;;;17.00;50.39
44044;BME280;29709;52.396;16.796;2023-05-02T16:18:35;102162.95;;;16.87;51.22
44044;BME280;29709;52.396;16.796;2023-05-02T16:21:48;102175.84;;;16.71;51.53
44044;BME280;29709;52.396;16.796;2023-05-02T16:25:02;102178.59;;;16.55;52.17
44044;BME280;29709;52.396;16.796;2023-05-02T16:28:15;102187.61;;;16.41;52.16
44044;BME280;29709;52.396;16.796;2023-05-02T16:31:29;102189.87;;;16.37;52.20
44044;BME280;29709;52.396;16.796;2023-05-02T16:34:42;102188.14;;;16.36;52.46
44044;BME280;29709;52.396;16.796;2023-05-02T16:37:55;102193.33;;;16.31;53.40
44044;BME280;29709;52.396;16.796;2023-05-02T16:41:09;102191.59;;;16.30;53.54
44044;BME280;29709;52.396;16.796;2023-05-02T16:44:22;102201.31;;;16.26;54.03
44044;BME280;29709;52.396;16.796;2023-05-02T16:47:35;102195.59;;;16.28;53.77
44044;BME280;29709;52.396;16.796;2023-05-02T16:50:52;102203.22;;;16.26;53.62
44044;BME280;29709;52.396;16.796;2023-05-02T16:54:05;102211.17;;;16.21;54.11
44044;BME280;29709;52.396;16.796;2023-05-02T16:57:20;102211.33;;;16.11;54.16
44044;BME280;29709;52.396;16.796;2023-05-02T17:00:33;102214.80;;;16.05;54.42
44044;BME280;29709;52.396;16.796;2023-05-02T17:03:47;102220.63;;;15.94;54.34
44044;BME280;29709;52.396;16.796;2023-05-02T17:07:00;102229.13;;;15.84;54.96
44044;BME280;29709;52.396;16.796;2023-05-02T17:10:14;102232.77;;;15.84;55.00